createdAt,value
2022-10-14T00:02:05.572Z,3.63
2022-10-14T00:04:32.918Z,3.66
2022-10-14T00:06:59.410Z,3.68
2022-10-14T00:09:26.059Z,3.71
2022-10-14T00:11:52.622Z,3.74
2022-10-14T00:14:21.593Z,3.79
2022-10-14T00:16:49.484Z,3.83
2022-10-14T00:19:16.110Z,3.86
2022-10-14T00:21:45.112Z,3.90
2022-10-14T00:24:13.183Z,3.93
2022-10-14T00:26:40.849Z,3.96
2022-10-14T00:29:11.722Z,3.98
2022-10-14T00:31:38.335Z,4.00
2022-10-14T00:34:05.288Z,4.01
2022-10-14T00:36:31.841Z,4.01
2022-10-14T00:38:58.477Z,4.03
2022-10-14T00:41:31.568Z,4.05
2022-10-14T00:44:26.987Z,4.07
2022-10-14T00:46:55.267Z,4.07
2022-10-14T00:49:26.106Z,4.07
2022-10-14T00:51:58.279Z,4.06
2022-10-14T00:54:32.095Z,4.07
2022-10-14T00:56:58.925Z,4.09
2022-10-14T00:59:25.708Z,4.11
2022-10-14T01:01:52.344Z,4.13
2022-10-14T01:04:18.910Z,4.14
2022-10-14T01:07:04.052Z,4.17
2022-10-14T01:10:00.638Z,4.21
2022-10-14T01:13:09.228Z,4.27
2022-10-14T01:15:45.186Z,4.32
2022-10-14T01:18:32.520Z,4.37
2022-10-14T01:21:11.914Z,4.40
2022-10-14T01:23:47.511Z,4.42
2022-10-14T01:26:40.470Z,4.47
2022-10-14T01:29:44.897Z,4.51
2022-10-14T01:32:19.811Z,4.54
2022-10-14T01:35:01.429Z,4.57
2022-10-14T01:37:31.392Z,4.60
2022-10-14T01:40:03.738Z,4.65
2022-10-14T01:42:35.140Z,4.68
2022-10-14T01:45:05.322Z,4.72
2022-10-14T01:47:35.011Z,4.74
2022-10-14T01:50:13.545Z,4.77
2022-10-14T01:53:11.828Z,4.81
2022-10-14T01:55:43.293Z,4.80
2022-10-14T01:58:11.056Z,4.81
2022-10-14T02:00:37.799Z,4.80
2022-10-14T02:03:04.314Z,4.79
2022-10-14T02:05:43.258Z,4.79
2022-10-14T02:08:19.023Z,4.79
2022-10-14T02:11:05.842Z,4.78
2022-10-14T02:13:56.550Z,4.78
2022-10-14T02:16:44.952Z,4.78
2022-10-14T02:19:28.459Z,4.76
2022-10-14T02:22:08.608Z,4.71
2022-10-14T02:24:40.482Z,4.67
2022-10-14T02:27:11.726Z,4.64
2022-10-14T02:29:40.412Z,4.61
2022-10-14T02:32:08.746Z,4.57
2022-10-14T02:34:37.901Z,4.51
2022-10-14T02:37:05.361Z,4.44
2022-10-14T02:39:40.094Z,4.38
2022-10-14T02:42:06.948Z,4.33
2022-10-14T02:44:33.386Z,4.30
2022-10-14T02:46:59.925Z,4.29
2022-10-14T02:49:26.466Z,4.25
2022-10-14T02:51:52.878Z,4.18
2022-10-14T02:54:19.446Z,4.12
2022-10-14T02:56:45.863Z,4.06
2022-10-14T02:59:12.301Z,3.99
2022-10-14T03:01:38.978Z,3.94
2022-10-14T03:04:05.510Z,3.92
2022-10-14T03:06:31.943Z,3.91
2022-10-14T03:08:58.492Z,3.90
2022-10-14T03:11:25.027Z,3.86
2022-10-14T03:13:51.466Z,3.81
2022-10-14T03:16:18.007Z,3.73
2022-10-14T03:18:44.438Z,3.67
2022-10-14T03:21:10.841Z,3.60
2022-10-14T03:23:37.531Z,3.52
2022-10-14T03:26:04.076Z,3.45
2022-10-14T03:28:30.551Z,3.43
2022-10-14T03:30:57.147Z,3.37
2022-10-14T03:33:25.999Z,3.31
2022-10-14T03:35:53.503Z,3.28
2022-10-14T03:38:20.332Z,3.26
2022-10-14T03:40:46.740Z,3.25
2022-10-14T03:43:13.199Z,3.23
2022-10-14T03:45:39.769Z,3.26
2022-10-14T03:48:06.421Z,3.28
2022-10-14T03:50:32.832Z,3.27
2022-10-14T03:52:59.290Z,3.26
2022-10-14T03:55:25.829Z,3.23
2022-10-14T03:57:52.371Z,3.21
2022-10-14T04:00:19.051Z,3.18
2022-10-14T04:02:45.555Z,3.13
2022-10-14T04:05:12.016Z,3.08
2022-10-14T04:07:38.554Z,3.08
2022-10-14T04:10:06.529Z,3.09
2022-10-14T04:12:33.262Z,3.09
2022-10-14T04:14:59.793Z,3.09
2022-10-14T04:17:26.644Z,3.07
2022-10-14T04:19:53.577Z,3.03
2022-10-14T04:22:20.417Z,2.98
2022-10-14T04:24:47.291Z,2.94
2022-10-14T04:27:13.825Z,2.91
2022-10-14T04:29:40.363Z,2.87
2022-10-14T04:32:06.910Z,2.83
2022-10-14T04:34:33.445Z,2.80
2022-10-14T04:37:00.189Z,2.77
2022-10-14T04:39:26.807Z,2.77
2022-10-14T04:41:53.376Z,2.75
2022-10-14T04:44:19.920Z,2.72
2022-10-14T04:46:46.399Z,2.69
2022-10-14T04:49:12.856Z,2.68
2022-10-14T04:51:39.451Z,2.68
2022-10-14T04:54:05.994Z,2.68
2022-10-14T04:56:32.519Z,2.70
2022-10-14T04:58:59.049Z,2.71
2022-10-14T05:01:28.064Z,2.72
2022-10-14T05:03:56.753Z,2.71
2022-10-14T05:06:23.297Z,2.71
2022-10-14T05:08:49.772Z,2.72
2022-10-14T05:11:16.701Z,2.73
2022-10-14T05:13:43.226Z,2.73
2022-10-14T05:16:09.763Z,2.74
2022-10-14T05:18:36.617Z,2.77
2022-10-14T05:21:03.466Z,2.81
2022-10-14T05:23:30.008Z,2.86
2022-10-14T05:25:56.547Z,2.90
2022-10-14T05:28:23.225Z,2.95
2022-10-14T05:30:49.757Z,3.03
2022-10-14T05:33:16.379Z,3.14
2022-10-14T05:35:58.514Z,3.26
2022-10-14T05:38:25.438Z,3.40
2022-10-14T05:40:54.987Z,3.58
2022-10-14T05:43:21.694Z,3.76
2022-10-14T05:45:48.106Z,3.93
2022-10-14T05:48:14.597Z,4.10
2022-10-14T05:50:42.577Z,4.32
2022-10-14T05:53:09.607Z,4.60
2022-10-14T05:55:36.126Z,4.84
2022-10-14T05:58:02.784Z,5.09
2022-10-14T06:00:29.921Z,5.35
2022-10-14T06:02:59.478Z,5.63
2022-10-14T06:05:26.074Z,5.86
2022-10-14T06:07:52.600Z,6.07
2022-10-14T06:10:19.128Z,6.30
2022-10-14T06:12:45.794Z,6.55
2022-10-14T06:15:12.235Z,6.80
2022-10-14T06:17:38.769Z,7.08
2022-10-14T06:20:05.928Z,7.25
2022-10-14T06:22:32.673Z,7.39
2022-10-14T06:25:03.858Z,7.42
2022-10-14T06:27:30.897Z,7.37
2022-10-14T06:29:57.508Z,7.31
2022-10-14T06:32:24.401Z,7.26
2022-10-14T06:34:51.128Z,7.25
2022-10-14T06:37:17.551Z,7.20
2022-10-14T06:39:44.061Z,7.18
2022-10-14T06:42:13.067Z,7.21
2022-10-14T06:44:40.029Z,7.25
2022-10-14T06:47:07.344Z,7.32
2022-10-14T06:49:34.435Z,7.41
2022-10-14T06:52:00.845Z,7.50
2022-10-14T06:54:27.299Z,7.62
2022-10-14T06:56:56.519Z,7.73
2022-10-14T06:59:23.057Z,7.90
2022-10-14T07:01:49.597Z,8.13
2022-10-14T07:04:16.133Z,8.58
2022-10-14T07:06:42.773Z,9.14
2022-10-14T07:09:09.252Z,9.72
2022-10-14T07:11:35.750Z,9.93
2022-10-14T07:14:02.287Z,10.02
2022-10-14T07:16:28.832Z,10.08
2022-10-14T07:18:55.674Z,10.12
2022-10-14T07:21:22.115Z,10.24
2022-10-14T07:23:48.747Z,10.38
2022-10-14T07:26:15.391Z,10.37
2022-10-14T07:28:41.975Z,10.33
2022-10-14T07:31:10.588Z,10.37
2022-10-14T07:33:39.413Z,10.41
2022-10-14T07:36:09.514Z,10.50
2022-10-14T07:38:36.053Z,10.69
2022-10-14T07:41:05.903Z,10.93
2022-10-14T07:43:34.206Z,11.41
2022-10-14T07:46:05.726Z,12.02
2022-10-14T07:48:45.333Z,12.39
2022-10-14T07:51:20.109Z,12.69
2022-10-14T07:53:46.570Z,12.96
2022-10-14T07:56:13.389Z,13.06
2022-10-14T07:58:44.250Z,12.97
2022-10-14T08:01:11.076Z,13.01
2022-10-14T08:03:37.824Z,13.04
2022-10-14T08:06:05.896Z,13.04
2022-10-14T08:08:32.643Z,13.04
2022-10-14T08:11:04.919Z,13.08
2022-10-14T08:13:32.600Z,13.14
2022-10-14T08:15:59.456Z,13.26
2022-10-14T08:18:26.606Z,13.38
2022-10-14T08:20:53.610Z,13.32
2022-10-14T08:23:20.983Z,13.47
2022-10-14T08:25:49.623Z,13.82
2022-10-14T08:28:16.318Z,14.12
2022-10-14T08:30:43.191Z,13.99
2022-10-14T08:33:09.618Z,14.00
2022-10-14T08:35:36.278Z,14.01
2022-10-14T08:38:02.813Z,14.00
2022-10-14T08:40:33.500Z,14.07
2022-10-14T08:43:16.281Z,14.11
2022-10-14T08:45:47.942Z,14.15
2022-10-14T08:48:23.591Z,14.28
2022-10-14T08:50:56.677Z,14.60
2022-10-14T08:53:28.766Z,15.00
2022-10-14T08:55:59.033Z,15.21
2022-10-14T08:58:31.266Z,15.62
2022-10-14T09:01:03.145Z,15.76
2022-10-14T09:03:31.118Z,15.81
2022-10-14T09:06:05.794Z,15.85
2022-10-14T09:08:44.778Z,15.91
2022-10-14T09:11:15.882Z,16.07
2022-10-14T09:13:47.102Z,16.11
2022-10-14T09:16:20.548Z,16.32
2022-10-14T09:18:54.790Z,16.69
2022-10-14T09:21:48.050Z,16.89
2022-10-14T09:24:21.870Z,16.62
2022-10-14T09:27:09.177Z,16.34
2022-10-14T09:30:01.431Z,16.19
2022-10-14T09:32:39.779Z,16.38
2022-10-14T09:35:15.092Z,16.84
2022-10-14T09:37:41.839Z,17.29
2022-10-14T09:40:32.579Z,17.38
2022-10-14T09:43:10.348Z,17.56
2022-10-14T09:46:08.331Z,17.70
2022-10-14T09:48:37.539Z,17.65
2022-10-14T09:51:10.647Z,17.60
2022-10-14T09:53:52.246Z,17.59
2022-10-14T09:56:41.823Z,17.83
2022-10-14T09:59:20.337Z,18.01
2022-10-14T10:01:55.646Z,18.01
2022-10-14T10:04:41.806Z,18.26
2022-10-14T10:07:31.717Z,18.46
2022-10-14T10:10:16.421Z,18.40
2022-10-14T10:12:43.003Z,18.64
2022-10-14T10:15:20.974Z,18.62
2022-10-14T10:17:48.581Z,18.78
2022-10-14T10:20:14.981Z,18.91
2022-10-14T10:22:41.619Z,19.25
2022-10-14T10:25:08.050Z,19.70
2022-10-14T10:27:38.131Z,20.02
2022-10-14T10:30:29.423Z,20.17
2022-10-14T10:33:24.608Z,20.30
2022-10-14T10:38:50.587Z,20.63
2022-10-14T10:41:54.724Z,20.51
2022-10-14T10:44:33.923Z,20.63
2022-10-14T10:47:39.489Z,20.69
2022-10-14T10:50:21.265Z,20.68
2022-10-14T10:53:10.459Z,20.46
2022-10-14T10:56:08.876Z,20.38
2022-10-14T10:58:40.496Z,20.58
2022-10-14T11:01:29.965Z,20.61
2022-10-14T11:04:26.005Z,20.77
2022-10-14T11:07:12.621Z,20.80
2022-10-14T11:10:20.732Z,20.76
2022-10-14T11:13:06.528Z,20.69
2022-10-14T11:15:52.941Z,20.72
2022-10-14T11:18:37.808Z,20.65
2022-10-14T11:21:20.060Z,20.62
2022-10-14T11:23:50.806Z,20.59
2022-10-14T11:26:56.204Z,20.65
2022-10-14T11:30:00.192Z,20.70
2022-10-14T11:32:41.616Z,20.81
2022-10-14T11:35:24.156Z,20.95
2022-10-14T11:38:41.461Z,21.11
2022-10-14T11:41:34.115Z,21.30
2022-10-14T11:44:17.351Z,21.56
2022-10-14T11:46:51.382Z,21.79
2022-10-14T11:49:34.176Z,22.01
2022-10-14T11:52:10.350Z,22.18
2022-10-14T11:54:39.042Z,22.08
2022-10-14T11:57:52.481Z,21.86
2022-10-14T12:00:39.194Z,21.80
2022-10-14T12:03:41.703Z,22.00
2022-10-14T12:06:21.732Z,22.21
2022-10-14T12:09:13.672Z,22.35
2022-10-14T12:11:52.656Z,22.36
2022-10-14T12:14:20.782Z,22.37
2022-10-14T12:16:49.286Z,22.28
2022-10-14T12:19:25.684Z,22.11
2022-10-14T12:22:04.980Z,21.91
2022-10-14T12:24:37.419Z,21.71
2022-10-14T12:27:09.462Z,21.61
2022-10-14T12:29:47.919Z,21.56
2022-10-14T12:32:19.741Z,21.56
2022-10-14T12:34:51.872Z,21.64
2022-10-14T12:37:27.321Z,21.60
2022-10-14T12:40:22.953Z,21.57
2022-10-14T12:43:01.586Z,21.34
2022-10-14T12:45:31.565Z,21.18
2022-10-14T12:48:04.910Z,21.19
2022-10-14T12:50:37.228Z,21.19
2022-10-14T12:53:18.977Z,21.15
2022-10-14T12:55:53.547Z,21.17
2022-10-14T12:58:39.282Z,21.05
2022-10-14T13:01:16.081Z,20.87
2022-10-14T13:03:53.686Z,20.74
2022-10-14T13:06:40.742Z,20.68
2022-10-14T13:09:13.092Z,20.67
2022-10-14T13:12:00.821Z,20.64
2022-10-14T13:14:30.281Z,20.59
2022-10-14T13:17:02.586Z,20.63
2022-10-14T13:19:34.968Z,20.65
2022-10-14T13:22:03.720Z,20.68
2022-10-14T13:24:32.915Z,20.62
2022-10-14T13:27:16.525Z,20.60
2022-10-14T13:29:58.250Z,20.55
2022-10-14T13:32:35.139Z,20.66
2022-10-14T13:35:09.746Z,20.72
2022-10-14T13:37:45.927Z,20.69
2022-10-14T13:40:35.411Z,20.64
2022-10-14T13:43:42.741Z,20.49
2022-10-14T13:46:22.056Z,20.25
2022-10-14T13:48:55.862Z,19.90
2022-10-14T13:51:38.780Z,19.55
2022-10-14T13:54:11.348Z,19.26
2022-10-14T13:56:37.938Z,19.03
2022-10-14T13:59:32.950Z,18.88
2022-10-14T14:02:21.133Z,18.80
2022-10-14T14:04:51.967Z,18.73
2022-10-14T14:07:58.983Z,18.61
2022-10-14T14:10:11.136Z,18.45
2022-10-14T14:12:42.663Z,18.33
2022-10-14T14:15:21.214Z,18.21
2022-10-14T14:17:47.724Z,18.10
2022-10-14T14:20:20.225Z,17.99
2022-10-14T14:22:46.841Z,17.86
2022-10-14T14:25:36.672Z,17.78
2022-10-14T14:28:06.130Z,17.66
2022-10-14T14:30:35.033Z,17.53
2022-10-14T14:33:10.481Z,17.43
2022-10-14T14:35:37.326Z,17.32
2022-10-14T14:38:04.060Z,17.21
2022-10-14T14:40:31.539Z,17.10
2022-10-14T14:43:02.160Z,16.97
2022-10-14T14:45:44.083Z,16.80
2022-10-14T14:48:15.430Z,16.62
2022-10-14T14:50:44.789Z,16.46
2022-10-14T14:53:18.796Z,16.32
2022-10-14T14:55:55.951Z,16.19
2022-10-14T14:58:39.275Z,16.06
2022-10-14T15:01:07.544Z,15.95
2022-10-14T15:04:12.525Z,15.84
2022-10-14T15:06:37.198Z,15.71
2022-10-14T15:09:14.998Z,15.64
2022-10-14T15:11:54.484Z,15.61
2022-10-14T15:14:52.312Z,15.55
2022-10-14T15:17:34.630Z,15.50
2022-10-14T15:20:03.822Z,15.47
2022-10-14T15:22:32.316Z,15.43
2022-10-14T15:25:08.593Z,15.37
2022-10-14T15:27:35.015Z,15.30
2022-10-14T15:30:22.346Z,15.22
2022-10-14T15:32:50.488Z,15.12
2022-10-14T15:35:20.174Z,15.02
2022-10-14T15:37:48.415Z,14.94
2022-10-14T15:40:19.028Z,14.87
2022-10-14T15:42:46.919Z,14.80
2022-10-14T15:45:14.069Z,14.72
2022-10-14T15:47:40.926Z,14.65
2022-10-14T15:50:19.955Z,14.59
2022-10-14T15:52:46.908Z,14.51
2022-10-14T15:55:15.804Z,14.42
2022-10-14T15:57:42.491Z,14.35
2022-10-14T16:00:09.626Z,14.29
2022-10-14T16:02:36.342Z,14.25
2022-10-14T16:05:21.206Z,14.20
2022-10-14T16:07:48.671Z,14.15
2022-10-14T16:10:18.017Z,14.11
2022-10-14T16:12:45.032Z,14.10
2022-10-14T16:15:39.522Z,14.07
2022-10-14T16:18:06.042Z,14.06
2022-10-14T16:20:32.810Z,14.05
2022-10-14T16:22:59.398Z,14.05
2022-10-14T16:25:34.105Z,14.03
2022-10-14T16:28:01.120Z,14.04
2022-10-14T16:30:28.221Z,14.04
2022-10-14T16:32:55.158Z,14.04
2022-10-14T16:35:21.680Z,14.04
2022-10-14T16:37:48.218Z,14.06
2022-10-14T16:40:15.167Z,14.05
2022-10-14T16:42:41.706Z,14.03
2022-10-14T16:45:08.893Z,14.01
2022-10-14T16:47:35.402Z,14.00
2022-10-14T16:50:01.954Z,13.99
2022-10-14T16:52:28.497Z,13.98
2022-10-14T16:54:54.955Z,13.97
2022-10-14T16:57:21.602Z,13.95
2022-10-14T16:59:48.206Z,13.92
2022-10-14T17:02:16.900Z,13.86
2022-10-14T17:04:43.438Z,13.82
2022-10-14T17:07:10.421Z,13.79
2022-10-14T17:09:36.944Z,13.78
2022-10-14T17:12:06.931Z,13.69
2022-10-14T17:14:36.564Z,13.56
2022-10-14T17:17:03.615Z,13.42
2022-10-14T17:19:30.249Z,13.28
2022-10-14T17:21:56.722Z,13.14
2022-10-14T17:24:23.587Z,13.04
2022-10-14T17:26:50.185Z,12.91
2022-10-14T17:29:16.661Z,12.79
2022-10-14T17:31:43.976Z,12.67
2022-10-14T17:34:10.521Z,12.59
2022-10-14T17:36:37.376Z,12.51
2022-10-14T17:39:04.005Z,12.42
2022-10-14T17:41:30.651Z,12.34
2022-10-14T17:43:58.534Z,12.27
2022-10-14T17:46:26.001Z,12.21
2022-10-14T17:48:54.748Z,12.18
2022-10-14T17:51:21.211Z,12.14
2022-10-14T17:53:47.602Z,12.09
2022-10-14T17:56:14.203Z,12.02
2022-10-14T17:58:40.708Z,11.94
2022-10-14T18:01:09.864Z,11.85
2022-10-14T18:03:39.557Z,11.79
2022-10-14T18:06:20.966Z,11.72
2022-10-14T18:08:51.533Z,11.64
2022-10-14T18:11:19.355Z,11.55
2022-10-14T18:13:53.107Z,11.48
2022-10-14T18:16:19.542Z,11.41
2022-10-14T18:18:45.959Z,11.35
2022-10-14T18:21:12.391Z,11.30
2022-10-14T18:23:40.666Z,11.23
2022-10-14T18:26:15.494Z,11.19
2022-10-14T18:28:44.450Z,11.14
2022-10-14T18:31:16.323Z,11.08
2022-10-14T18:33:43.618Z,11.04
2022-10-14T18:36:13.156Z,11.02
2022-10-14T18:38:40.442Z,11.03
2022-10-14T18:41:10.933Z,11.05
2022-10-14T18:43:37.770Z,11.05
2022-10-14T18:46:04.230Z,11.07
2022-10-14T18:48:31.063Z,11.08
2022-10-14T18:51:01.673Z,11.10
2022-10-14T18:53:29.573Z,11.10
2022-10-14T18:55:58.145Z,11.11
2022-10-14T18:58:27.513Z,11.13
2022-10-14T19:00:54.022Z,11.15
2022-10-14T19:03:20.444Z,11.17
2022-10-14T19:05:46.979Z,11.17
2022-10-14T19:10:45.178Z,11.16
2022-10-14T19:13:11.617Z,11.16
2022-10-14T19:15:43.206Z,11.16
2022-10-14T19:18:11.864Z,11.14
2022-10-14T19:20:38.811Z,11.11
2022-10-14T19:23:05.251Z,11.10
2022-10-14T19:25:31.701Z,11.09
2022-10-14T19:27:58.529Z,11.09
2022-10-14T19:30:25.589Z,11.09
2022-10-14T19:32:52.047Z,11.08
2022-10-14T19:37:49.925Z,11.06
2022-10-14T19:40:19.864Z,11.04
2022-10-14T19:42:49.468Z,11.04
2022-10-14T19:45:16.006Z,11.04
2022-10-14T19:47:42.650Z,11.04
2022-10-14T19:50:10.045Z,11.04
2022-10-14T19:52:36.551Z,11.05
2022-10-14T19:55:03.908Z,11.05
2022-10-14T19:57:30.347Z,11.07
2022-10-14T19:59:56.888Z,11.06
2022-10-14T20:02:23.299Z,11.05
2022-10-14T20:04:49.766Z,11.03
2022-10-14T20:07:16.288Z,11.01
2022-10-14T20:09:42.751Z,11.00
2022-10-14T20:12:09.177Z,11.00
2022-10-14T20:14:35.626Z,11.00
2022-10-14T20:17:02.166Z,11.01
2022-10-14T20:19:28.709Z,11.01
2022-10-14T20:21:55.147Z,11.00
2022-10-14T20:24:21.689Z,10.98
2022-10-14T20:26:48.143Z,10.94
2022-10-14T20:29:14.646Z,10.89
2022-10-14T20:31:41.109Z,10.85
2022-10-14T20:34:11.156Z,10.81
2022-10-14T20:36:37.980Z,10.78
2022-10-14T20:39:04.628Z,10.76
2022-10-14T20:41:31.192Z,10.73
2022-10-14T20:43:57.701Z,10.70
2022-10-14T20:46:24.415Z,10.66
2022-10-14T20:48:56.021Z,10.61
2022-10-14T20:51:22.900Z,10.58
2022-10-14T20:53:49.599Z,10.55
2022-10-14T20:56:16.342Z,10.52
2022-10-14T20:58:43.088Z,10.49
2022-10-14T21:01:17.067Z,10.47
2022-10-14T21:03:45.809Z,10.44
2022-10-14T21:06:15.832Z,10.41
2022-10-14T21:08:42.678Z,10.38
2022-10-14T21:11:15.412Z,10.36
2022-10-14T21:13:51.371Z,10.34
2022-10-14T21:16:21.696Z,10.35
2022-10-14T21:18:53.692Z,10.35
2022-10-14T21:21:26.332Z,10.37
2022-10-14T21:23:52.845Z,10.40
2022-10-14T21:26:19.488Z,10.42
2022-10-14T21:28:46.090Z,10.41
2022-10-14T21:31:17.354Z,10.41
2022-10-14T21:33:45.924Z,10.42
2022-10-14T21:36:14.277Z,10.40
2022-10-14T21:38:41.454Z,10.39
2022-10-14T21:41:08.614Z,10.37
2022-10-14T21:43:36.866Z,10.38
2022-10-14T21:46:12.226Z,10.37
2022-10-14T21:48:40.178Z,10.37
2022-10-14T21:51:15.865Z,10.37
2022-10-14T21:53:44.114Z,10.37
2022-10-14T21:56:11.877Z,10.37
2022-10-14T21:58:38.567Z,10.36
2022-10-14T22:01:19.082Z,10.35
2022-10-14T22:03:45.632Z,10.34
2022-10-14T22:06:16.688Z,10.32
2022-10-14T22:08:46.154Z,10.31
2022-10-14T22:11:37.224Z,10.31
2022-10-14T22:14:05.574Z,10.31
2022-10-14T22:16:32.855Z,10.29
2022-10-14T22:19:00.944Z,10.29
2022-10-14T22:21:29.150Z,10.29
2022-10-14T22:23:56.061Z,10.27
2022-10-14T22:26:24.450Z,10.27
2022-10-14T22:28:58.460Z,10.25
2022-10-14T22:31:25.627Z,10.24
2022-10-14T22:33:52.295Z,10.22
2022-10-14T22:36:23.914Z,10.20
2022-10-14T22:38:52.960Z,10.17
2022-10-14T22:41:20.832Z,10.15
2022-10-14T22:43:49.543Z,10.13
2022-10-14T22:46:17.922Z,10.12
2022-10-14T22:48:44.412Z,10.11
2022-10-14T22:51:16.728Z,10.08
2022-10-14T22:53:44.893Z,10.05
2022-10-14T22:56:14.843Z,10.03
2022-10-14T22:58:41.540Z,10.02
2022-10-14T23:01:16.992Z,10.00
2022-10-14T23:03:43.841Z,9.99
2022-10-14T23:06:12.887Z,9.97
2022-10-14T23:08:40.303Z,9.94
2022-10-14T23:11:07.770Z,9.93
2022-10-14T23:13:34.263Z,9.91
2022-10-14T23:16:03.414Z,9.89
2022-10-14T23:18:32.483Z,9.86
2022-10-14T23:20:59.153Z,9.82
2022-10-14T23:23:25.592Z,9.79
2022-10-14T23:25:52.065Z,9.78
2022-10-14T23:28:18.604Z,9.78
2022-10-14T23:30:45.049Z,9.76
2022-10-14T23:33:11.660Z,9.74
2022-10-14T23:35:38.653Z,9.72
2022-10-14T23:38:05.406Z,9.69
2022-10-14T23:40:31.978Z,9.65
2022-10-14T23:42:58.551Z,9.62
2022-10-14T23:45:28.776Z,9.62
2022-10-14T23:47:55.316Z,9.62
2022-10-14T23:50:21.855Z,9.62
2022-10-14T23:52:48.388Z,9.62
2022-10-14T23:55:14.942Z,9.60
2022-10-14T23:57:41.498Z,9.59
